createdAt,value
2019-05-21T00:01:14.488Z,6.47
2019-05-21T00:03:43.014Z,6.22
2019-05-21T00:06:11.463Z,6.10
2019-05-21T00:08:39.956Z,6.20
2019-05-21T00:11:08.392Z,5.17
2019-05-21T00:13:36.851Z,6.12
2019-05-21T00:16:05.389Z,5.85
2019-05-21T00:18:33.825Z,7.22
2019-05-21T00:21:02.292Z,8.05
2019-05-21T00:23:30.864Z,7.70
2019-05-21T00:25:59.327Z,8.55
2019-05-21T00:28:37.695Z,9.45
2019-05-21T00:31:43.201Z,9.05
2019-05-21T00:34:48.741Z,8.50
2019-05-21T00:37:53.373Z,8.45
2019-05-21T00:40:58.338Z,7.70
2019-05-21T00:43:38.396Z,7.05
2019-05-21T00:46:06.964Z,6.97
2019-05-21T00:48:35.475Z,7.77
2019-05-21T00:51:04.068Z,7.85
2019-05-21T00:53:32.550Z,7.40
2019-05-21T00:56:01.000Z,7.35
2019-05-21T00:58:29.442Z,7.03
2019-05-21T01:00:57.921Z,7.60
2019-05-21T01:03:26.371Z,7.50
2019-05-21T01:05:54.886Z,6.90
2019-05-21T01:08:23.365Z,6.95
2019-05-21T01:10:51.816Z,6.58
2019-05-21T01:13:20.332Z,6.42
2019-05-21T01:15:48.801Z,6.20
2019-05-21T01:18:17.265Z,6.08
2019-05-21T01:20:45.713Z,5.35
2019-05-21T01:23:14.285Z,5.55
2019-05-21T01:25:42.744Z,5.78
2019-05-21T01:28:11.181Z,6.20
2019-05-21T01:30:39.661Z,6.17
2019-05-21T01:33:08.102Z,6.12
2019-05-21T01:35:36.542Z,5.33
2019-05-21T01:38:05.015Z,5.17
2019-05-21T01:40:33.527Z,5.28
2019-05-21T01:43:03.524Z,4.95
2019-05-21T01:45:32.150Z,4.90
2019-05-21T01:48:00.592Z,4.92
2019-05-21T01:50:29.037Z,5.40
2019-05-21T01:52:57.969Z,6.28
2019-05-21T01:55:26.408Z,6.12
2019-05-21T01:57:54.857Z,6.17
2019-05-21T02:00:23.312Z,6.08
2019-05-21T02:02:51.766Z,6.30
2019-05-21T02:05:32.180Z,7.22
2019-05-21T02:07:50.416Z,6.20
2019-05-21T02:10:18.875Z,6.62
2019-05-21T02:12:47.395Z,7.35
2019-05-21T02:15:16.098Z,6.42
2019-05-21T02:17:44.545Z,6.07
2019-05-21T02:20:13.429Z,6.03
2019-05-21T02:22:41.900Z,6.03
2019-05-21T02:25:10.585Z,5.08
2019-05-21T02:27:39.035Z,5.43
2019-05-21T02:30:09.613Z,5.12
2019-05-21T02:32:38.414Z,5.42
2019-05-21T02:35:07.303Z,5.25
2019-05-21T02:37:35.771Z,5.22
2019-05-21T02:40:05.445Z,5.22
2019-05-21T02:42:34.064Z,5.95
2019-05-21T02:45:02.762Z,5.43
2019-05-21T02:47:31.267Z,5.23
2019-05-21T02:49:59.727Z,5.60
2019-05-21T02:52:28.329Z,6.10
2019-05-21T02:54:56.958Z,5.75
2019-05-21T02:57:27.102Z,6.70
2019-05-21T03:00:00.016Z,6.87
2019-05-21T03:02:30.097Z,6.60
2019-05-21T03:04:58.612Z,7.10
2019-05-21T03:07:27.155Z,7.28
2019-05-21T03:09:55.683Z,6.55
2019-05-21T03:12:24.191Z,7.03
2019-05-21T03:14:52.671Z,6.92
2019-05-21T03:17:21.139Z,6.72
2019-05-21T03:19:49.634Z,6.50
2019-05-21T03:22:18.187Z,7.37
2019-05-21T03:24:46.632Z,7.22
2019-05-21T03:27:15.081Z,7.05
2019-05-21T03:29:43.634Z,6.50
2019-05-21T03:32:12.155Z,6.42
2019-05-21T03:34:40.674Z,6.60
2019-05-21T03:37:09.145Z,6.37
2019-05-21T03:39:37.585Z,7.80
2019-05-21T03:42:06.097Z,7.37
2019-05-21T03:44:34.957Z,7.80
2019-05-21T03:47:03.486Z,7.53
2019-05-21T03:49:32.367Z,7.85
2019-05-21T03:52:00.848Z,7.80
2019-05-21T03:54:29.360Z,7.28
2019-05-21T03:56:58.230Z,7.47
2019-05-21T03:59:26.768Z,6.75
2019-05-21T04:01:55.226Z,6.87
2019-05-21T04:04:23.745Z,7.58
2019-05-21T04:06:52.776Z,7.53
2019-05-21T04:09:21.350Z,7.12
2019-05-21T04:11:53.112Z,7.25
2019-05-21T04:14:33.368Z,6.87
2019-05-21T04:17:03.525Z,5.85
2019-05-21T04:19:36.470Z,6.05
2019-05-21T04:22:08.025Z,5.97
2019-05-21T04:24:36.462Z,6.00
2019-05-21T04:27:05.053Z,6.00
2019-05-21T04:29:33.593Z,6.47
2019-05-21T04:32:02.042Z,6.85
2019-05-21T04:34:30.564Z,6.40
2019-05-21T04:37:09.854Z,6.40
2019-05-21T04:39:29.208Z,6.35
2019-05-21T04:41:57.717Z,6.87
2019-05-21T04:44:26.209Z,7.28
2019-05-21T04:46:54.725Z,7.50
2019-05-21T04:49:23.306Z,7.55
2019-05-21T04:51:51.849Z,8.05
2019-05-21T04:54:20.370Z,7.28
2019-05-21T04:56:48.826Z,7.08
2019-05-21T04:59:17.488Z,6.92
2019-05-21T05:01:45.934Z,7.03
2019-05-21T05:04:14.474Z,7.20
2019-05-21T05:06:43.005Z,7.37
2019-05-21T05:09:11.449Z,7.45
2019-05-21T05:11:39.892Z,7.58
2019-05-21T05:14:08.417Z,7.15
2019-05-21T05:16:36.857Z,7.25
2019-05-21T05:19:05.297Z,6.47
2019-05-21T05:21:34.062Z,6.58
2019-05-21T05:24:02.592Z,7.97
2019-05-21T05:26:31.101Z,8.68
2019-05-21T05:28:59.618Z,7.75
2019-05-21T05:31:28.072Z,7.60
2019-05-21T05:33:56.507Z,7.53
2019-05-21T05:36:24.985Z,6.78
2019-05-21T05:38:53.429Z,7.55
2019-05-21T05:41:21.885Z,7.05
2019-05-21T05:43:50.422Z,7.40
2019-05-21T05:46:18.939Z,7.42
2019-05-21T05:48:49.040Z,6.85
2019-05-21T05:51:17.577Z,7.72
2019-05-21T05:53:58.246Z,7.47
2019-05-21T05:56:28.418Z,6.87
2019-05-21T05:58:57.673Z,7.37
2019-05-21T06:01:27.759Z,6.92
2019-05-21T06:03:56.253Z,6.97
2019-05-21T06:06:24.777Z,6.67
2019-05-21T06:08:53.294Z,7.10
2019-05-21T06:11:21.787Z,7.75
2019-05-21T06:13:50.222Z,7.55
2019-05-21T06:16:18.703Z,8.78
2019-05-21T06:18:47.242Z,9.48
2019-05-21T06:21:15.689Z,8.53
2019-05-21T06:23:44.206Z,8.45
2019-05-21T06:26:12.809Z,7.90
2019-05-21T06:28:41.256Z,8.80
2019-05-21T06:31:09.722Z,7.70
2019-05-21T06:33:38.264Z,7.25
2019-05-21T06:36:06.723Z,8.58
2019-05-21T06:38:35.203Z,8.63
2019-05-21T06:41:03.742Z,8.05
2019-05-21T06:43:32.326Z,7.67
2019-05-21T06:46:00.773Z,6.37
2019-05-21T06:48:29.247Z,5.20
2019-05-21T06:50:57.680Z,5.95
2019-05-21T06:53:26.131Z,5.35
2019-05-21T06:55:54.605Z,3.47
2019-05-21T06:58:23.058Z,4.40
2019-05-21T07:00:51.560Z,4.67
2019-05-21T07:03:20.438Z,5.20
2019-05-21T07:05:58.396Z,4.45
2019-05-21T07:08:33.460Z,4.90
2019-05-21T07:10:49.264Z,5.20
2019-05-21T07:13:17.774Z,5.43
2019-05-21T07:15:46.247Z,4.42
2019-05-21T07:18:14.774Z,5.10
2019-05-21T07:20:43.213Z,5.10
2019-05-21T07:23:11.739Z,4.70
2019-05-21T07:25:40.208Z,3.22
2019-05-21T07:28:08.654Z,3.98
2019-05-21T07:30:37.098Z,3.80
2019-05-21T07:33:06.428Z,3.62
2019-05-21T07:35:35.382Z,3.80
2019-05-21T07:38:03.915Z,4.37
2019-05-21T07:40:32.470Z,4.05
2019-05-21T07:43:00.965Z,4.17
2019-05-21T07:45:29.413Z,3.72
2019-05-21T07:47:57.991Z,4.20
2019-05-21T07:50:26.519Z,4.33
2019-05-21T07:52:54.955Z,4.20
2019-05-21T07:55:23.451Z,4.10
2019-05-21T07:57:51.892Z,4.05
2019-05-21T08:00:20.741Z,4.60
2019-05-21T08:02:49.218Z,4.90
2019-05-21T08:05:17.895Z,4.45
2019-05-21T08:07:46.477Z,4.33
2019-05-21T08:10:15.242Z,5.08
2019-05-21T08:12:43.774Z,4.55
2019-05-21T08:15:12.721Z,4.03
2019-05-21T08:17:41.210Z,4.62
2019-05-21T08:20:12.202Z,4.60
2019-05-21T08:22:40.655Z,4.25
2019-05-21T08:25:13.844Z,3.98
2019-05-21T08:27:39.645Z,4.12
2019-05-21T08:30:08.433Z,3.62
2019-05-21T08:32:36.979Z,4.00
2019-05-21T08:35:05.831Z,3.90
2019-05-21T08:37:34.280Z,4.40
2019-05-21T08:40:03.291Z,3.30
2019-05-21T08:42:31.806Z,3.27
2019-05-21T08:45:00.253Z,3.95
2019-05-21T08:47:28.836Z,3.40
2019-05-21T08:49:57.346Z,3.70
2019-05-21T08:52:25.862Z,3.83
2019-05-21T08:54:56.383Z,3.60
2019-05-21T08:57:24.505Z,3.50
2019-05-21T08:59:52.953Z,3.45
2019-05-21T09:02:21.481Z,2.93
2019-05-21T09:04:50.124Z,3.15
2019-05-21T09:07:19.024Z,4.08
2019-05-21T09:09:50.680Z,3.42
2019-05-21T09:12:17.747Z,3.70
2019-05-21T09:14:46.322Z,3.80
2019-05-21T09:17:14.796Z,3.60
2019-05-21T09:19:43.245Z,3.90
2019-05-21T09:22:11.704Z,3.77
2019-05-21T09:24:40.254Z,4.53
2019-05-21T09:27:08.702Z,4.90
2019-05-21T09:29:37.213Z,4.67
2019-05-21T09:32:05.711Z,4.58
2019-05-21T09:34:48.200Z,5.67
2019-05-21T09:37:18.475Z,4.75
2019-05-21T09:39:34.772Z,4.30
2019-05-21T09:42:03.214Z,4.47
2019-05-21T09:44:31.654Z,4.80
2019-05-21T09:47:00.222Z,3.87
2019-05-21T09:49:28.735Z,4.40
2019-05-21T09:51:57.187Z,5.00
2019-05-21T09:54:25.752Z,4.47
2019-05-21T09:56:54.242Z,4.58
2019-05-21T09:59:42.797Z,4.47
2019-05-21T10:02:13.047Z,4.60
2019-05-21T10:04:41.566Z,5.20
2019-05-21T10:07:10.165Z,4.90
2019-05-21T10:09:38.959Z,5.22
2019-05-21T10:12:07.740Z,5.12
2019-05-21T10:14:36.291Z,4.53
2019-05-21T10:17:05.155Z,5.25
2019-05-21T10:19:36.434Z,5.70
2019-05-21T10:22:05.298Z,6.20
2019-05-21T10:24:33.862Z,5.87
2019-05-21T10:27:03.485Z,5.78
2019-05-21T10:29:32.235Z,5.30
2019-05-21T10:32:00.669Z,5.10
2019-05-21T10:34:29.175Z,4.83
2019-05-21T10:36:57.722Z,4.73
2019-05-21T10:39:26.235Z,4.60
2019-05-21T10:41:54.674Z,5.13
2019-05-21T10:44:23.167Z,4.60
2019-05-21T10:46:51.781Z,5.40
2019-05-21T10:49:20.277Z,4.78
2019-05-21T10:51:48.841Z,4.90
2019-05-21T10:54:17.281Z,4.77
2019-05-21T10:56:48.324Z,4.13
2019-05-21T10:59:16.069Z,4.50
2019-05-21T11:02:04.006Z,4.37
2019-05-21T11:04:46.223Z,4.40
2019-05-21T11:08:23.911Z,4.00
2019-05-21T11:10:49.294Z,3.47
2019-05-21T11:13:18.083Z,3.55
2019-05-21T11:15:46.849Z,3.37
2019-05-21T11:18:15.391Z,3.65
2019-05-21T11:20:43.993Z,3.43
2019-05-21T11:23:12.513Z,4.17
2019-05-21T11:25:41.058Z,3.23
2019-05-21T11:28:09.497Z,3.13
2019-05-21T11:30:38.009Z,3.40
2019-05-21T11:33:06.743Z,3.20
2019-05-21T11:38:05.145Z,3.40
2019-05-21T11:40:33.695Z,3.10
2019-05-21T11:43:02.208Z,3.55
2019-05-21T11:48:59.755Z,3.15
2019-05-21T11:51:28.518Z,3.72
2019-05-21T11:53:57.287Z,3.52
2019-05-21T11:56:26.122Z,3.65
2019-05-21T11:58:54.886Z,4.10
2019-05-21T12:01:23.656Z,3.98
2019-05-21T12:03:52.450Z,4.00
2019-05-21T12:06:21.239Z,4.28
2019-05-21T12:08:56.789Z,4.45
2019-05-21T12:11:20.942Z,3.47
2019-05-21T12:13:49.708Z,3.50
2019-05-21T12:16:18.478Z,3.47
2019-05-21T12:18:47.294Z,18.95
2019-05-21T12:21:16.069Z,4.87
2019-05-21T12:23:44.857Z,3.70
2019-05-21T12:26:13.567Z,3.77
2019-05-21T12:28:42.087Z,3.77
2019-05-21T12:31:10.602Z,3.70
2019-05-21T12:33:39.098Z,4.20
2019-05-21T12:36:08.216Z,3.50
2019-05-21T12:38:36.658Z,3.95
2019-05-21T12:41:05.198Z,3.60
2019-05-21T12:43:33.808Z,4.00
2019-05-21T12:46:02.244Z,3.50
2019-05-21T12:48:30.708Z,3.72
2019-05-21T12:50:59.150Z,3.95
2019-05-21T12:53:27.626Z,3.83
2019-05-21T12:55:56.177Z,3.57
2019-05-21T12:58:25.489Z,3.35
2019-05-21T13:00:54.078Z,3.80
2019-05-21T13:03:22.557Z,3.30
2019-05-21T13:05:51.093Z,3.35
2019-05-21T13:08:19.714Z,2.95
2019-05-21T13:10:48.202Z,3.72
2019-05-21T13:13:16.645Z,3.83
2019-05-21T13:15:45.245Z,3.52
2019-05-21T13:18:13.754Z,3.70
2019-05-21T13:20:42.273Z,3.33
2019-05-21T13:23:10.856Z,3.47
2019-05-21T13:25:39.394Z,3.93
2019-05-21T13:28:07.834Z,4.05
2019-05-21T13:30:36.370Z,4.55
2019-05-21T13:33:05.282Z,4.57
2019-05-21T13:35:33.961Z,5.05
2019-05-21T13:38:02.407Z,4.80
2019-05-21T13:40:32.511Z,4.87
2019-05-21T13:43:00.956Z,4.10
2019-05-21T13:45:29.392Z,4.40
2019-05-21T13:47:57.947Z,5.03
2019-05-21T13:50:26.461Z,4.97
2019-05-21T13:52:54.972Z,5.40
2019-05-21T13:55:23.510Z,5.10
2019-05-21T13:57:52.025Z,5.17
2019-05-21T14:00:28.923Z,4.92
2019-05-21T14:02:57.373Z,5.37
2019-05-21T14:05:26.261Z,4.55
2019-05-21T14:07:54.732Z,5.17
2019-05-21T14:10:23.381Z,4.97
2019-05-21T14:12:51.885Z,4.90
2019-05-21T14:15:20.421Z,4.30
2019-05-21T14:17:48.857Z,4.73
2019-05-21T14:20:17.449Z,4.60
2019-05-21T14:22:45.997Z,5.20
2019-05-21T14:25:14.674Z,4.75
2019-05-21T14:27:45.082Z,4.87
2019-05-21T14:30:13.771Z,4.70
2019-05-21T14:32:42.263Z,5.05
2019-05-21T14:35:10.911Z,4.47
2019-05-21T14:37:39.380Z,4.40
2019-05-21T14:40:09.257Z,4.78
2019-05-21T14:42:37.770Z,4.33
2019-05-21T14:45:07.841Z,5.10
2019-05-21T14:47:37.018Z,5.00
2019-05-21T14:50:08.092Z,4.90
2019-05-21T14:52:36.649Z,5.00
2019-05-21T14:55:08.415Z,4.67
2019-05-21T14:57:37.004Z,4.85
2019-05-21T15:00:09.055Z,5.63
2019-05-21T15:02:37.516Z,5.22
2019-05-21T15:05:06.594Z,4.92
2019-05-21T15:07:35.066Z,4.92
2019-05-21T15:10:04.723Z,4.70
2019-05-21T15:12:33.240Z,5.03
2019-05-21T15:15:01.721Z,4.87
2019-05-21T15:17:30.434Z,5.13
2019-05-21T15:20:00.597Z,4.67
2019-05-21T15:22:29.147Z,4.35
2019-05-21T15:24:57.666Z,5.07
2019-05-21T15:27:26.107Z,5.00
2019-05-21T15:29:57.193Z,4.95
2019-05-21T15:32:25.433Z,5.33
2019-05-21T15:34:54.707Z,5.62
2019-05-21T15:37:23.179Z,4.85
2019-05-21T15:39:51.702Z,5.40
2019-05-21T15:42:20.152Z,5.72
2019-05-21T15:44:48.656Z,5.28
2019-05-21T15:47:17.174Z,5.30
2019-05-21T15:49:45.611Z,4.85
2019-05-21T15:52:14.091Z,5.28
2019-05-21T15:54:42.550Z,4.72
2019-05-21T15:57:11.070Z,5.00
2019-05-21T15:59:39.617Z,5.25
2019-05-21T16:02:08.061Z,4.78
2019-05-21T16:04:36.507Z,4.78
2019-05-21T16:07:05.066Z,5.78
2019-05-21T16:09:34.879Z,5.07
2019-05-21T16:12:03.453Z,5.25
2019-05-21T16:14:31.943Z,5.85
2019-05-21T16:17:00.382Z,4.92
2019-05-21T16:19:29.030Z,4.70
2019-05-21T16:21:57.498Z,4.53
2019-05-21T16:24:25.939Z,4.55
2019-05-21T16:26:54.392Z,4.72
2019-05-21T16:29:22.985Z,5.00
2019-05-21T16:31:51.910Z,5.28
2019-05-21T16:34:20.428Z,5.12
2019-05-21T16:36:48.916Z,5.50
2019-05-21T16:39:19.312Z,5.90
2019-05-21T16:41:47.763Z,5.42
2019-05-21T16:44:16.238Z,6.03
2019-05-21T16:46:44.709Z,6.37
2019-05-21T16:49:13.238Z,6.53
2019-05-21T16:51:43.532Z,6.40
2019-05-21T16:54:12.378Z,5.50
2019-05-21T16:56:40.822Z,6.90
2019-05-21T16:59:09.534Z,8.08
2019-05-21T17:01:38.069Z,6.47
2019-05-21T17:04:06.783Z,7.97
2019-05-21T17:06:35.281Z,7.17
2019-05-21T17:09:04.914Z,9.07
2019-05-21T17:14:01.140Z,7.47
2019-05-21T17:16:29.573Z,7.78
2019-05-21T17:18:58.086Z,8.13
2019-05-21T17:21:26.709Z,9.30
2019-05-21T17:23:55.145Z,9.00
2019-05-21T17:26:23.600Z,9.20
2019-05-21T17:28:52.086Z,7.78
2019-05-21T17:31:20.627Z,9.03
2019-05-21T17:33:49.129Z,9.23
2019-05-21T17:36:17.760Z,8.35
2019-05-21T17:38:46.217Z,8.63
2019-05-21T17:41:14.728Z,8.10
2019-05-21T17:43:43.376Z,8.75
2019-05-21T17:46:11.827Z,9.43
2019-05-21T17:48:40.269Z,9.25
2019-05-21T17:51:09.313Z,10.13
2019-05-21T17:53:37.975Z,9.93
2019-05-21T17:56:06.897Z,10.85
2019-05-21T17:58:35.624Z,9.78
2019-05-21T18:01:07.312Z,10.40
2019-05-21T18:03:35.837Z,10.75
2019-05-21T18:06:04.904Z,11.75
2019-05-21T18:08:33.886Z,13.03
2019-05-21T18:11:02.775Z,14.23
2019-05-21T18:13:31.833Z,15.20
2019-05-21T18:16:00.561Z,16.90
2019-05-21T18:18:29.381Z,15.30
2019-05-21T18:20:58.246Z,16.17
2019-05-21T18:23:26.833Z,15.72
2019-05-21T18:25:55.692Z,15.95
2019-05-21T18:28:24.177Z,14.95
2019-05-21T18:30:52.897Z,15.50
2019-05-21T18:33:21.348Z,12.50
2019-05-21T18:35:50.111Z,15.40
2019-05-21T18:38:18.725Z,13.50
2019-05-21T18:40:47.607Z,14.60
2019-05-21T18:43:16.089Z,15.98
2019-05-21T18:45:44.604Z,15.18
2019-05-21T18:48:14.711Z,15.48
2019-05-21T18:50:43.269Z,14.23
2019-05-21T18:53:11.862Z,15.98
2019-05-21T18:55:40.396Z,16.32
2019-05-21T18:58:09.293Z,15.53
2019-05-21T19:00:38.086Z,16.20
2019-05-21T19:03:06.948Z,13.80
2019-05-21T19:05:35.446Z,16.05
2019-05-21T19:08:04.046Z,14.95
2019-05-21T19:10:43.029Z,14.40
2019-05-21T19:13:11.737Z,14.53
2019-05-21T19:15:44.566Z,14.87
2019-05-21T19:18:13.820Z,14.90
2019-05-21T19:20:42.394Z,16.32
2019-05-21T19:23:11.141Z,18.12
2019-05-21T19:25:40.261Z,18.40
2019-05-21T19:28:08.789Z,19.10
2019-05-21T19:30:37.526Z,19.98
2019-05-21T19:33:06.730Z,20.97
2019-05-21T19:35:35.381Z,22.30
2019-05-21T19:38:04.068Z,23.33
2019-05-21T19:40:32.633Z,21.93
2019-05-21T19:43:05.412Z,22.50
2019-05-21T19:45:34.086Z,23.20
2019-05-21T19:48:02.697Z,24.85
2019-05-21T19:50:32.684Z,24.23
2019-05-21T19:53:01.264Z,24.05
2019-05-21T19:55:31.073Z,25.23
2019-05-21T19:57:59.604Z,24.72
2019-05-21T20:00:28.325Z,24.43
2019-05-21T20:02:56.797Z,24.40
2019-05-21T20:05:25.484Z,26.27
2019-05-21T20:07:54.768Z,26.83
2019-05-21T20:10:23.514Z,22.82
2019-05-21T20:12:52.103Z,22.70
2019-05-21T20:15:20.697Z,26.68
2019-05-21T20:18:06.236Z,27.45
2019-05-21T20:20:42.247Z,23.45
2019-05-21T20:23:12.264Z,21.15
2019-05-21T20:25:55.282Z,22.75
2019-05-21T20:28:13.223Z,19.70
2019-05-21T20:30:44.727Z,19.70
2019-05-21T20:33:14.065Z,20.70
2019-05-21T20:35:42.753Z,21.35
2019-05-21T20:38:12.223Z,20.15
2019-05-21T20:40:41.300Z,19.48
2019-05-21T20:43:10.814Z,19.85
2019-05-21T20:48:08.883Z,19.00
2019-05-21T20:50:38.278Z,21.42
2019-05-21T20:53:08.012Z,22.07
2019-05-21T20:55:36.580Z,22.00
2019-05-21T20:58:05.568Z,21.97
2019-05-21T21:00:36.686Z,21.23
2019-05-21T21:03:05.377Z,24.32
2019-05-21T21:05:34.042Z,24.47
2019-05-21T21:08:03.353Z,26.13
2019-05-21T21:10:33.118Z,23.98
2019-05-21T21:13:02.278Z,23.80
2019-05-21T21:15:31.529Z,24.82
2019-05-21T21:18:00.749Z,25.00
2019-05-21T21:20:29.454Z,27.02
2019-05-21T21:22:58.068Z,25.67
2019-05-21T21:25:27.560Z,24.00
2019-05-21T21:27:56.080Z,22.50
2019-05-21T21:30:25.998Z,24.87
2019-05-21T21:32:56.291Z,25.97
2019-05-21T21:35:25.095Z,26.80
2019-05-21T21:37:53.741Z,25.75
2019-05-21T21:40:23.930Z,27.00
2019-05-21T21:42:52.521Z,28.90
2019-05-21T21:45:21.083Z,28.67
2019-05-21T21:47:50.193Z,29.42
2019-05-21T21:50:19.184Z,30.65
2019-05-21T21:52:48.105Z,33.18
2019-05-21T21:55:16.790Z,33.55
2019-05-21T21:57:45.416Z,35.10
2019-05-21T22:00:42.121Z,33.92
2019-05-21T22:03:12.410Z,35.05
2019-05-21T22:05:41.402Z,34.90
2019-05-21T22:08:10.425Z,34.33
2019-05-21T22:10:39.776Z,34.65
2019-05-21T22:13:08.403Z,34.67
2019-05-21T22:15:37.996Z,35.30
2019-05-21T22:20:35.093Z,31.73
2019-05-21T22:23:03.820Z,33.23
2019-05-21T22:25:32.616Z,35.13
2019-05-21T22:28:01.063Z,35.60
2019-05-21T22:30:29.627Z,33.65
2019-05-21T22:32:58.249Z,30.17
2019-05-21T22:35:26.945Z,32.55
2019-05-21T22:37:55.567Z,35.90
2019-05-21T22:40:24.106Z,34.05
2019-05-21T22:42:52.700Z,33.08
2019-05-21T22:45:21.581Z,31.33
2019-05-21T22:47:50.099Z,31.80
2019-05-21T22:50:18.900Z,31.75
2019-05-21T22:52:47.372Z,33.05
2019-05-21T22:55:15.988Z,30.32
2019-05-21T22:57:44.429Z,31.77
2019-05-21T23:00:13.517Z,32.38
2019-05-21T23:02:44.156Z,33.08
2019-05-21T23:05:12.900Z,30.25
2019-05-21T23:07:41.988Z,31.75
2019-05-21T23:10:12.361Z,30.88
2019-05-21T23:12:40.887Z,32.25
2019-05-21T23:15:23.616Z,27.45
2019-05-21T23:17:41.462Z,27.67
2019-05-21T23:20:12.420Z,28.65
2019-05-21T23:22:41.482Z,30.85
2019-05-21T23:25:11.337Z,32.03
2019-05-21T23:27:40.524Z,31.42
2019-05-21T23:30:11.896Z,32.78
2019-05-21T23:32:40.481Z,32.38
2019-05-21T23:35:14.290Z,32.88
2019-05-21T23:37:44.677Z,31.17
2019-05-21T23:40:15.540Z,31.50
2019-05-21T23:42:43.989Z,29.57
2019-05-21T23:45:12.834Z,30.48
2019-05-21T23:47:41.419Z,32.67
2019-05-21T23:50:11.194Z,30.48
2019-05-21T23:52:40.062Z,31.73
2019-05-21T23:55:09.205Z,33.33
2019-05-21T23:57:38.787Z,33.20
